sensor_id;sensor_type;location;lat;lon;timestamp;P1;durP1;ratioP1;P2;durP2;ratioP2
17197;SDS011;8715;51.010;6.812;2023-04-03T00:02:23;803.60;;;761.20;;
17197;SDS011;8715;51.010;6.812;2023-04-03T00:04:48;799.23;;;757.17;;
17197;SDS011;8715;51.010;6.812;2023-04-03T00:07:13;794.73;;;753.03;;
17197;SDS011;8715;51.010;6.812;2023-04-03T00:09:39;796.45;;;754.83;;
17197;SDS011;8715;51.010;6.812;2023-04-03T00:12:05;800.00;;;758.15;;
17197;SDS011;8715;51.010;6.812;2023-04-03T00:14:30;793.73;;;752.33;;
17197;SDS011;8715;51.010;6.812;2023-04-03T00:16:55;788.78;;;748.05;;
17197;SDS011;8715;51.010;6.812;2023-04-03T00:19:20;799.33;;;757.97;;
17197;SDS011;8715;51.010;6.812;2023-04-03T00:21:46;781.77;;;741.70;;
17197;SDS011;8715;51.010;6.812;2023-04-03T00:24:11;790.47;;;749.03;;
17197;SDS011;8715;51.010;6.812;2023-04-03T00:26:36;792.67;;;752.23;;
17197;SDS011;8715;51.010;6.812;2023-04-03T00:29:01;789.70;;;748.73;;
17197;SDS011;8715;51.010;6.812;2023-04-03T00:31:26;788.27;;;747.67;;
17197;SDS011;8715;51.010;6.812;2023-04-03T00:33:52;785.30;;;744.67;;
17197;SDS011;8715;51.010;6.812;2023-04-03T00:36:17;792.43;;;751.67;;
17197;SDS011;8715;51.010;6.812;2023-04-03T00:38:42;785.10;;;745.17;;
17197;SDS011;8715;51.010;6.812;2023-04-03T00:41:07;782.00;;;742.27;;
17197;SDS011;8715;51.010;6.812;2023-04-03T00:43:32;796.57;;;755.93;;
17197;SDS011;8715;51.010;6.812;2023-04-03T00:45:58;791.90;;;751.83;;
17197;SDS011;8715;51.010;6.812;2023-04-03T00:50:48;783.50;;;743.73;;
17197;SDS011;8715;51.010;6.812;2023-04-03T00:53:18;779.95;;;740.35;;
17197;SDS011;8715;51.010;6.812;2023-04-03T00:55:44;789.40;;;749.08;;
17197;SDS011;8715;51.010;6.812;2023-04-03T00:58:11;792.42;;;752.28;;
17197;SDS011;8715;51.010;6.812;2023-04-03T01:00:38;777.95;;;739.35;;
17197;SDS011;8715;51.010;6.812;2023-04-03T01:03:03;791.47;;;751.25;;
17197;SDS011;8715;51.010;6.812;2023-04-03T01:05:29;781.70;;;742.73;;
17197;SDS011;8715;51.010;6.812;2023-04-03T01:07:54;773.13;;;734.50;;
17197;SDS011;8715;51.010;6.812;2023-04-03T01:10:20;780.70;;;741.67;;
17197;SDS011;8715;51.010;6.812;2023-04-03T01:12:46;783.33;;;743.45;;
17197;SDS011;8715;51.010;6.812;2023-04-03T01:15:30;785.63;;;745.80;;
17197;SDS011;8715;51.010;6.812;2023-04-03T01:18:00;790.03;;;749.95;;
17197;SDS011;8715;51.010;6.812;2023-04-03T01:22:59;789.40;;;749.00;;
17197;SDS011;8715;51.010;6.812;2023-04-03T01:25:28;774.28;;;734.25;;
17197;SDS011;8715;51.010;6.812;2023-04-03T01:27:54;785.33;;;744.90;;
17197;SDS011;8715;51.010;6.812;2023-04-03T01:30:21;797.60;;;755.88;;
17197;SDS011;8715;51.010;6.812;2023-04-03T01:32:48;794.35;;;753.17;;
17197;SDS011;8715;51.010;6.812;2023-04-03T01:35:13;791.87;;;750.97;;
17197;SDS011;8715;51.010;6.812;2023-04-03T01:37:39;786.93;;;746.27;;
17197;SDS011;8715;51.010;6.812;2023-04-03T01:40:04;788.00;;;747.40;;
17197;SDS011;8715;51.010;6.812;2023-04-03T01:42:30;803.70;;;761.63;;
17197;SDS011;8715;51.010;6.812;2023-04-03T01:44:55;788.35;;;748.00;;
17197;SDS011;8715;51.010;6.812;2023-04-03T01:47:21;780.93;;;740.13;;
17197;SDS011;8715;51.010;6.812;2023-04-03T01:49:46;780.95;;;741.15;;
17197;SDS011;8715;51.010;6.812;2023-04-03T01:52:12;783.90;;;744.10;;
17197;SDS011;8715;51.010;6.812;2023-04-03T01:54:37;778.83;;;739.30;;
17197;SDS011;8715;51.010;6.812;2023-04-03T01:57:02;782.93;;;742.83;;
17197;SDS011;8715;51.010;6.812;2023-04-03T01:59:27;777.97;;;739.20;;
17197;SDS011;8715;51.010;6.812;2023-04-03T02:01:53;776.63;;;736.60;;
17197;SDS011;8715;51.010;6.812;2023-04-03T02:04:18;779.00;;;738.73;;
17197;SDS011;8715;51.010;6.812;2023-04-03T02:06:43;781.23;;;741.93;;
17197;SDS011;8715;51.010;6.812;2023-04-03T02:09:08;781.67;;;742.37;;
17197;SDS011;8715;51.010;6.812;2023-04-03T02:11:34;781.33;;;741.43;;
17197;SDS011;8715;51.010;6.812;2023-04-03T02:13:59;783.53;;;744.05;;
17197;SDS011;8715;51.010;6.812;2023-04-03T02:16:25;781.25;;;740.67;;
17197;SDS011;8715;51.010;6.812;2023-04-03T02:18:50;782.90;;;742.83;;
17197;SDS011;8715;51.010;6.812;2023-04-03T02:21:16;787.30;;;746.78;;
17197;SDS011;8715;51.010;6.812;2023-04-03T02:23:42;785.20;;;745.17;;
17197;SDS011;8715;51.010;6.812;2023-04-03T02:26:10;780.43;;;740.57;;
17197;SDS011;8715;51.010;6.812;2023-04-03T02:28:36;782.45;;;742.78;;
17197;SDS011;8715;51.010;6.812;2023-04-03T02:31:02;779.70;;;740.08;;
17197;SDS011;8715;51.010;6.812;2023-04-03T02:33:28;771.60;;;732.90;;
17197;SDS011;8715;51.010;6.812;2023-04-03T02:35:54;780.60;;;741.03;;
17197;SDS011;8715;51.010;6.812;2023-04-03T02:38:19;776.13;;;737.00;;
17197;SDS011;8715;51.010;6.812;2023-04-03T02:40:44;767.53;;;729.50;;
17197;SDS011;8715;51.010;6.812;2023-04-03T02:43:10;773.83;;;735.63;;
17197;SDS011;8715;51.010;6.812;2023-04-03T02:45:35;786.37;;;746.70;;
17197;SDS011;8715;51.010;6.812;2023-04-03T02:48:01;774.88;;;736.20;;
17197;SDS011;8715;51.010;6.812;2023-04-03T02:50:26;774.00;;;734.30;;
17197;SDS011;8715;51.010;6.812;2023-04-03T02:52:51;770.72;;;732.90;;
17197;SDS011;8715;51.010;6.812;2023-04-03T02:55:16;776.90;;;737.23;;
17197;SDS011;8715;51.010;6.812;2023-04-03T02:57:42;777.40;;;738.03;;
17197;SDS011;8715;51.010;6.812;2023-04-03T03:00:07;769.33;;;731.00;;
17197;SDS011;8715;51.010;6.812;2023-04-03T03:02:33;784.05;;;744.40;;
17197;SDS011;8715;51.010;6.812;2023-04-03T03:04:59;770.65;;;732.20;;
17197;SDS011;8715;51.010;6.812;2023-04-03T03:07:24;788.67;;;747.30;;
17197;SDS011;8715;51.010;6.812;2023-04-03T03:09:51;786.03;;;746.17;;
17197;SDS011;8715;51.010;6.812;2023-04-03T03:12:16;783.40;;;744.15;;
17197;SDS011;8715;51.010;6.812;2023-04-03T03:14:46;782.17;;;743.08;;
17197;SDS011;8715;51.010;6.812;2023-04-03T03:17:11;766.80;;;728.35;;
17197;SDS011;8715;51.010;6.812;2023-04-03T03:19:36;770.17;;;731.27;;
17197;SDS011;8715;51.010;6.812;2023-04-03T03:22:02;766.67;;;728.57;;
17197;SDS011;8715;51.010;6.812;2023-04-03T03:24:27;777.13;;;738.38;;
17197;SDS011;8715;51.010;6.812;2023-04-03T03:26:52;761.33;;;724.17;;
17197;SDS011;8715;51.010;6.812;2023-04-03T03:29:17;777.60;;;738.47;;
17197;SDS011;8715;51.010;6.812;2023-04-03T03:31:43;769.70;;;732.00;;
17197;SDS011;8715;51.010;6.812;2023-04-03T03:34:08;759.60;;;722.73;;
17197;SDS011;8715;51.010;6.812;2023-04-03T03:36:33;781.10;;;741.43;;
17197;SDS011;8715;51.010;6.812;2023-04-03T03:38:59;765.17;;;727.53;;
17197;SDS011;8715;51.010;6.812;2023-04-03T03:41:24;777.70;;;739.03;;
17197;SDS011;8715;51.010;6.812;2023-04-03T03:59:03;757.08;;;720.15;;
17197;SDS011;8715;51.010;6.812;2023-04-03T04:01:29;768.85;;;731.25;;
17197;SDS011;8715;51.010;6.812;2023-04-03T04:03:55;768.40;;;731.25;;
17197;SDS011;8715;51.010;6.812;2023-04-03T04:06:21;765.53;;;728.28;;
17197;SDS011;8715;51.010;6.812;2023-04-03T04:08:46;755.63;;;719.22;;
17197;SDS011;8715;51.010;6.812;2023-04-03T04:11:11;751.65;;;715.03;;
17197;SDS011;8715;51.010;6.812;2023-04-03T04:13:37;757.93;;;721.17;;
17197;SDS011;8715;51.010;6.812;2023-04-03T04:16:02;756.13;;;719.20;;
17197;SDS011;8715;51.010;6.812;2023-04-03T04:18:27;765.83;;;728.35;;
17197;SDS011;8715;51.010;6.812;2023-04-03T04:20:53;779.20;;;740.13;;
17197;SDS011;8715;51.010;6.812;2023-04-03T04:23:19;759.17;;;722.50;;
17197;SDS011;8715;51.010;6.812;2023-04-03T04:25:45;762.00;;;725.08;;
17197;SDS011;8715;51.010;6.812;2023-04-03T04:28:10;763.70;;;726.60;;
17197;SDS011;8715;51.010;6.812;2023-04-03T04:30:35;755.97;;;719.70;;
17197;SDS011;8715;51.010;6.812;2023-04-03T04:33:00;760.60;;;723.90;;
17197;SDS011;8715;51.010;6.812;2023-04-03T04:35:26;776.80;;;738.85;;
17197;SDS011;8715;51.010;6.812;2023-04-03T04:37:51;768.53;;;730.90;;
17197;SDS011;8715;51.010;6.812;2023-04-03T04:40:17;763.20;;;725.90;;
17197;SDS011;8715;51.010;6.812;2023-04-03T04:42:42;761.45;;;724.55;;
17197;SDS011;8715;51.010;6.812;2023-04-03T04:45:08;761.53;;;724.63;;
17197;SDS011;8715;51.010;6.812;2023-04-03T04:47:33;763.65;;;726.83;;
17197;SDS011;8715;51.010;6.812;2023-04-03T04:49:58;758.33;;;721.78;;
17197;SDS011;8715;51.010;6.812;2023-04-03T04:52:24;762.03;;;725.00;;
17197;SDS011;8715;51.010;6.812;2023-04-03T04:54:49;760.90;;;724.23;;
17197;SDS011;8715;51.010;6.812;2023-04-03T04:57:14;758.85;;;722.15;;
17197;SDS011;8715;51.010;6.812;2023-04-03T04:59:40;773.22;;;734.90;;
17197;SDS011;8715;51.010;6.812;2023-04-03T05:02:06;758.28;;;721.38;;
17197;SDS011;8715;51.010;6.812;2023-04-03T05:04:31;776.70;;;738.28;;
17197;SDS011;8715;51.010;6.812;2023-04-03T05:06:56;763.92;;;726.88;;
17197;SDS011;8715;51.010;6.812;2023-04-03T05:09:22;763.00;;;726.17;;
17197;SDS011;8715;51.010;6.812;2023-04-03T05:11:47;761.60;;;724.45;;
17197;SDS011;8715;51.010;6.812;2023-04-03T05:14:12;764.43;;;726.83;;
17197;SDS011;8715;51.010;6.812;2023-04-03T05:16:38;781.60;;;741.90;;
17197;SDS011;8715;51.010;6.812;2023-04-03T05:19:03;793.00;;;752.30;;
17197;SDS011;8715;51.010;6.812;2023-04-03T05:21:29;791.45;;;750.72;;
17197;SDS011;8715;51.010;6.812;2023-04-03T05:23:57;818.83;;;774.20;;
17197;SDS011;8715;51.010;6.812;2023-04-03T05:26:23;830.90;;;784.22;;
17197;SDS011;8715;51.010;6.812;2023-04-03T05:28:48;825.57;;;778.27;;
17197;SDS011;8715;51.010;6.812;2023-04-03T05:31:14;847.85;;;796.78;;
17197;SDS011;8715;51.010;6.812;2023-04-03T05:33:39;854.43;;;801.33;;
17197;SDS011;8715;51.010;6.812;2023-04-03T05:36:04;869.57;;;814.20;;
17197;SDS011;8715;51.010;6.812;2023-04-03T05:38:30;877.88;;;820.45;;
17197;SDS011;8715;51.010;6.812;2023-04-03T05:40:55;888.03;;;828.25;;
17197;SDS011;8715;51.010;6.812;2023-04-03T05:43:21;894.25;;;832.75;;
17197;SDS011;8715;51.010;6.812;2023-04-03T05:45:47;905.73;;;842.13;;
17197;SDS011;8715;51.010;6.812;2023-04-03T05:48:12;916.58;;;851.08;;
17197;SDS011;8715;51.010;6.812;2023-04-03T05:50:38;917.53;;;851.17;;
17197;SDS011;8715;51.010;6.812;2023-04-03T05:53:06;915.95;;;848.83;;
17197;SDS011;8715;51.010;6.812;2023-04-03T05:55:33;925.03;;;856.10;;
17197;SDS011;8715;51.010;6.812;2023-04-03T05:57:59;927.22;;;857.30;;
17197;SDS011;8715;51.010;6.812;2023-04-03T06:00:24;928.83;;;857.67;;
17197;SDS011;8715;51.010;6.812;2023-04-03T06:02:50;934.85;;;862.05;;
17197;SDS011;8715;51.010;6.812;2023-04-03T06:05:15;939.22;;;865.42;;
17197;SDS011;8715;51.010;6.812;2023-04-03T06:07:42;938.70;;;864.97;;
17197;SDS011;8715;51.010;6.812;2023-04-03T06:10:10;947.65;;;872.33;;
17197;SDS011;8715;51.010;6.812;2023-04-03T06:12:36;950.28;;;874.05;;
17197;SDS011;8715;51.010;6.812;2023-04-03T06:15:02;947.90;;;871.45;;
17197;SDS011;8715;51.010;6.812;2023-04-03T06:17:27;953.50;;;874.85;;
17197;SDS011;8715;51.010;6.812;2023-04-03T06:19:52;954.85;;;875.80;;
17197;SDS011;8715;51.010;6.812;2023-04-03T06:22:20;956.95;;;878.45;;
17197;SDS011;8715;51.010;6.812;2023-04-03T06:24:46;962.83;;;882.47;;
17197;SDS011;8715;51.010;6.812;2023-04-03T06:27:11;957.73;;;878.27;;
17197;SDS011;8715;51.010;6.812;2023-04-03T06:29:37;953.85;;;875.40;;
17197;SDS011;8715;51.010;6.812;2023-04-03T06:32:02;952.95;;;874.95;;
17197;SDS011;8715;51.010;6.812;2023-04-03T06:34:28;952.38;;;875.40;;
17197;SDS011;8715;51.010;6.812;2023-04-03T06:36:53;941.97;;;867.17;;
17197;SDS011;8715;51.010;6.812;2023-04-03T06:39:19;935.77;;;862.93;;
17197;SDS011;8715;51.010;6.812;2023-04-03T06:41:48;931.17;;;860.00;;
17197;SDS011;8715;51.010;6.812;2023-04-03T06:44:13;922.65;;;854.20;;
17197;SDS011;8715;51.010;6.812;2023-04-03T06:46:41;915.47;;;849.30;;
17197;SDS011;8715;51.010;6.812;2023-04-03T06:49:06;907.25;;;843.83;;
17197;SDS011;8715;51.010;6.812;2023-04-03T06:51:34;903.78;;;841.67;;
17197;SDS011;8715;51.010;6.812;2023-04-03T06:54:00;889.17;;;829.42;;
17197;SDS011;8715;51.010;6.812;2023-04-03T06:56:26;887.85;;;828.85;;
17197;SDS011;8715;51.010;6.812;2023-04-03T06:58:52;880.60;;;822.38;;
17197;SDS011;8715;51.010;6.812;2023-04-03T07:01:19;888.13;;;828.92;;
17197;SDS011;8715;51.010;6.812;2023-04-03T07:03:45;875.10;;;818.08;;
17197;SDS011;8715;51.010;6.812;2023-04-03T07:06:11;871.85;;;814.83;;
17197;SDS011;8715;51.010;6.812;2023-04-03T07:08:37;869.83;;;813.80;;
17197;SDS011;8715;51.010;6.812;2023-04-03T07:11:03;868.97;;;813.45;;
17197;SDS011;8715;51.010;6.812;2023-04-03T07:13:28;862.85;;;808.40;;
17197;SDS011;8715;51.010;6.812;2023-04-03T07:15:53;847.87;;;795.70;;
17197;SDS011;8715;51.010;6.812;2023-04-03T07:18:19;846.95;;;795.70;;
17197;SDS011;8715;51.010;6.812;2023-04-03T07:20:44;856.03;;;804.13;;
17197;SDS011;8715;51.010;6.812;2023-04-03T07:23:10;847.85;;;797.10;;
17197;SDS011;8715;51.010;6.812;2023-04-03T07:25:35;848.72;;;798.17;;
17197;SDS011;8715;51.010;6.812;2023-04-03T07:28:01;841.00;;;790.53;;
17197;SDS011;8715;51.010;6.812;2023-04-03T07:30:26;854.80;;;803.08;;
17197;SDS011;8715;51.010;6.812;2023-04-03T07:32:52;842.37;;;792.53;;
17197;SDS011;8715;51.010;6.812;2023-04-03T07:35:17;839.23;;;788.97;;
17197;SDS011;8715;51.010;6.812;2023-04-03T07:37:42;846.57;;;795.87;;
17197;SDS011;8715;51.010;6.812;2023-04-03T07:40:08;850.70;;;799.40;;
17197;SDS011;8715;51.010;6.812;2023-04-03T07:42:33;852.72;;;801.53;;
17197;SDS011;8715;51.010;6.812;2023-04-03T07:44:59;843.40;;;793.17;;
17197;SDS011;8715;51.010;6.812;2023-04-03T07:47:25;845.97;;;795.33;;
17197;SDS011;8715;51.010;6.812;2023-04-03T07:49:51;848.40;;;797.85;;
17197;SDS011;8715;51.010;6.812;2023-04-03T07:52:16;843.70;;;793.40;;
17197;SDS011;8715;51.010;6.812;2023-04-03T07:54:41;845.33;;;795.03;;
17197;SDS011;8715;51.010;6.812;2023-04-03T07:57:07;845.20;;;794.30;;
17197;SDS011;8715;51.010;6.812;2023-04-03T07:59:32;845.10;;;794.10;;
17197;SDS011;8715;51.010;6.812;2023-04-03T08:01:57;853.93;;;801.70;;
17197;SDS011;8715;51.010;6.812;2023-04-03T08:04:22;853.00;;;801.27;;
17197;SDS011;8715;51.010;6.812;2023-04-03T08:06:48;849.73;;;798.33;;
17197;SDS011;8715;51.010;6.812;2023-04-03T08:09:14;846.93;;;795.93;;
17197;SDS011;8715;51.010;6.812;2023-04-03T08:11:40;848.95;;;797.38;;
17197;SDS011;8715;51.010;6.812;2023-04-03T08:14:05;855.00;;;802.90;;
17197;SDS011;8715;51.010;6.812;2023-04-03T08:16:31;854.88;;;802.65;;
17197;SDS011;8715;51.010;6.812;2023-04-03T08:18:56;850.90;;;798.83;;
17197;SDS011;8715;51.010;6.812;2023-04-03T08:21:21;849.63;;;798.00;;
17197;SDS011;8715;51.010;6.812;2023-04-03T08:23:50;856.27;;;803.60;;
17197;SDS011;8715;51.010;6.812;2023-04-03T08:26:16;854.90;;;802.17;;
17197;SDS011;8715;51.010;6.812;2023-04-03T08:28:42;861.35;;;807.63;;
17197;SDS011;8715;51.010;6.812;2023-04-03T08:31:09;857.27;;;803.57;;
17197;SDS011;8715;51.010;6.812;2023-04-03T08:33:36;868.25;;;813.85;;
17197;SDS011;8715;51.010;6.812;2023-04-03T08:36:03;862.08;;;807.92;;
17197;SDS011;8715;51.010;6.812;2023-04-03T08:38:28;860.22;;;806.97;;
17197;SDS011;8715;51.010;6.812;2023-04-03T08:41:04;852.50;;;799.27;;
17197;SDS011;8715;51.010;6.812;2023-04-03T08:46:15;858.13;;;805.22;;
17197;SDS011;8715;51.010;6.812;2023-04-03T08:48:42;854.03;;;801.22;;
17197;SDS011;8715;51.010;6.812;2023-04-03T08:51:15;863.08;;;809.25;;
17197;SDS011;8715;51.010;6.812;2023-04-03T08:53:46;854.70;;;801.50;;
17197;SDS011;8715;51.010;6.812;2023-04-03T08:56:15;862.65;;;809.03;;
17197;SDS011;8715;51.010;6.812;2023-04-03T09:01:27;861.60;;;807.88;;
17197;SDS011;8715;51.010;6.812;2023-04-03T09:03:54;864.08;;;808.78;;
17197;SDS011;8715;51.010;6.812;2023-04-03T09:06:20;857.45;;;803.58;;
17197;SDS011;8715;51.010;6.812;2023-04-03T09:16:36;862.63;;;807.42;;
17197;SDS011;8715;51.010;6.812;2023-04-03T09:19:02;861.78;;;806.83;;
17197;SDS011;8715;51.010;6.812;2023-04-03T09:21:31;871.20;;;815.38;;
17197;SDS011;8715;51.010;6.812;2023-04-03T09:24:00;869.97;;;813.95;;
17197;SDS011;8715;51.010;6.812;2023-04-03T09:26:30;872.88;;;816.67;;
17197;SDS011;8715;51.010;6.812;2023-04-03T09:28:58;871.78;;;815.70;;
17197;SDS011;8715;51.010;6.812;2023-04-03T09:31:25;865.17;;;809.72;;
17197;SDS011;8715;51.010;6.812;2023-04-03T09:33:55;870.55;;;814.50;;
17197;SDS011;8715;51.010;6.812;2023-04-03T09:36:37;866.47;;;810.50;;
17197;SDS011;8715;51.010;6.812;2023-04-03T09:39:04;871.50;;;815.50;;
17197;SDS011;8715;51.010;6.812;2023-04-03T09:41:30;870.60;;;813.97;;
17197;SDS011;8715;51.010;6.812;2023-04-03T09:43:56;870.10;;;813.33;;
17197;SDS011;8715;51.010;6.812;2023-04-03T09:46:32;869.70;;;812.92;;
17197;SDS011;8715;51.010;6.812;2023-04-03T09:51:29;871.80;;;815.70;;
17197;SDS011;8715;51.010;6.812;2023-04-03T09:53:56;865.55;;;810.17;;
17197;SDS011;8715;51.010;6.812;2023-04-03T09:56:23;869.72;;;813.42;;
17197;SDS011;8715;51.010;6.812;2023-04-03T09:58:50;877.70;;;820.50;;
17197;SDS011;8715;51.010;6.812;2023-04-03T10:01:35;882.72;;;825.40;;
17197;SDS011;8715;51.010;6.812;2023-04-03T10:06:42;881.28;;;823.08;;
17197;SDS011;8715;51.010;6.812;2023-04-03T10:11:56;870.55;;;813.50;;
17197;SDS011;8715;51.010;6.812;2023-04-03T10:14:22;883.22;;;825.20;;
17197;SDS011;8715;51.010;6.812;2023-04-03T10:16:52;876.87;;;819.70;;
17197;SDS011;8715;51.010;6.812;2023-04-03T10:22:00;881.35;;;823.58;;
17197;SDS011;8715;51.010;6.812;2023-04-03T10:24:47;878.78;;;820.58;;
17197;SDS011;8715;51.010;6.812;2023-04-03T10:27:15;880.58;;;822.28;;
17197;SDS011;8715;51.010;6.812;2023-04-03T10:29:43;884.05;;;825.88;;
17197;SDS011;8715;51.010;6.812;2023-04-03T10:32:17;878.78;;;820.15;;
17197;SDS011;8715;51.010;6.812;2023-04-03T10:34:44;881.78;;;823.72;;
17197;SDS011;8715;51.010;6.812;2023-04-03T10:37:19;886.15;;;827.10;;
17197;SDS011;8715;51.010;6.812;2023-04-03T10:42:28;885.17;;;826.00;;
17197;SDS011;8715;51.010;6.812;2023-04-03T10:45:03;883.60;;;824.13;;
17197;SDS011;8715;51.010;6.812;2023-04-03T10:47:52;887.28;;;827.22;;
17197;SDS011;8715;51.010;6.812;2023-04-03T10:53:05;884.83;;;824.88;;
17197;SDS011;8715;51.010;6.812;2023-04-03T10:55:47;885.70;;;826.35;;
17197;SDS011;8715;51.010;6.812;2023-04-03T11:00:54;888.63;;;829.20;;
17197;SDS011;8715;51.010;6.812;2023-04-03T11:03:32;886.80;;;826.92;;
17197;SDS011;8715;51.010;6.812;2023-04-03T11:06:01;892.13;;;831.83;;
17197;SDS011;8715;51.010;6.812;2023-04-03T11:10:58;892.38;;;831.97;;
17197;SDS011;8715;51.010;6.812;2023-04-03T11:14:09;885.15;;;825.33;;
17197;SDS011;8715;51.010;6.812;2023-04-03T11:16:15;882.78;;;823.30;;
17197;SDS011;8715;51.010;6.812;2023-04-03T11:18:43;886.58;;;826.67;;
17197;SDS011;8715;51.010;6.812;2023-04-03T11:21:16;891.05;;;830.78;;
17197;SDS011;8715;51.010;6.812;2023-04-03T11:23:42;885.03;;;825.00;;
17197;SDS011;8715;51.010;6.812;2023-04-03T11:26:12;890.17;;;829.35;;
17197;SDS011;8715;51.010;6.812;2023-04-03T11:28:39;894.03;;;833.05;;
17197;SDS011;8715;51.010;6.812;2023-04-03T11:36:09;888.75;;;828.35;;
17197;SDS011;8715;51.010;6.812;2023-04-03T11:38:35;897.65;;;835.63;;
17197;SDS011;8715;51.010;6.812;2023-04-03T11:41:02;888.92;;;827.80;;
17197;SDS011;8715;51.010;6.812;2023-04-03T11:43:29;895.88;;;834.05;;
17197;SDS011;8715;51.010;6.812;2023-04-03T11:46:02;893.22;;;831.53;;
17197;SDS011;8715;51.010;6.812;2023-04-03T11:50:53;896.50;;;834.13;;
17197;SDS011;8715;51.010;6.812;2023-04-03T11:53:27;900.70;;;838.00;;
17197;SDS011;8715;51.010;6.812;2023-04-03T11:55:53;898.78;;;836.63;;
17197;SDS011;8715;51.010;6.812;2023-04-03T12:00:48;891.83;;;829.90;;
17197;SDS011;8715;51.010;6.812;2023-04-03T12:05:48;892.72;;;830.67;;
17197;SDS011;8715;51.010;6.812;2023-04-03T12:08:23;899.25;;;836.70;;
17197;SDS011;8715;51.010;6.812;2023-04-03T12:13:34;896.63;;;834.83;;
17197;SDS011;8715;51.010;6.812;2023-04-03T12:15:59;894.85;;;832.88;;
17197;SDS011;8715;51.010;6.812;2023-04-03T12:18:32;892.17;;;830.38;;
17197;SDS011;8715;51.010;6.812;2023-04-03T12:21:04;891.88;;;830.17;;
17197;SDS011;8715;51.010;6.812;2023-04-03T12:23:33;899.30;;;837.13;;
17197;SDS011;8715;51.010;6.812;2023-04-03T12:26:21;898.17;;;835.60;;
17197;SDS011;8715;51.010;6.812;2023-04-03T12:28:46;898.15;;;835.53;;
17197;SDS011;8715;51.010;6.812;2023-04-03T12:31:13;907.05;;;843.85;;
17197;SDS011;8715;51.010;6.812;2023-04-03T12:36:23;901.17;;;838.42;;
17197;SDS011;8715;51.010;6.812;2023-04-03T12:39:06;899.05;;;836.10;;
17197;SDS011;8715;51.010;6.812;2023-04-03T12:47:02;891.63;;;830.65;;
17197;SDS011;8715;51.010;6.812;2023-04-03T12:49:33;899.38;;;836.65;;
17197;SDS011;8715;51.010;6.812;2023-04-03T12:52:02;902.13;;;838.92;;
17197;SDS011;8715;51.010;6.812;2023-04-03T12:54:32;905.47;;;841.90;;
17197;SDS011;8715;51.010;6.812;2023-04-03T12:57:11;899.33;;;836.38;;
17197;SDS011;8715;51.010;6.812;2023-04-03T12:59:37;901.85;;;838.70;;
17197;SDS011;8715;51.010;6.812;2023-04-03T13:02:03;902.40;;;839.20;;
17197;SDS011;8715;51.010;6.812;2023-04-03T13:04:35;901.55;;;838.38;;
17197;SDS011;8715;51.010;6.812;2023-04-03T13:07:03;896.95;;;833.95;;
17197;SDS011;8715;51.010;6.812;2023-04-03T13:09:29;904.65;;;841.03;;
17197;SDS011;8715;51.010;6.812;2023-04-03T13:12:11;897.90;;;835.00;;
17197;SDS011;8715;51.010;6.812;2023-04-03T13:14:38;905.28;;;842.35;;
17197;SDS011;8715;51.010;6.812;2023-04-03T13:19:30;895.67;;;833.37;;
17197;SDS011;8715;51.010;6.812;2023-04-03T13:24:28;903.22;;;840.13;;
17197;SDS011;8715;51.010;6.812;2023-04-03T13:26:54;905.53;;;842.08;;
17197;SDS011;8715;51.010;6.812;2023-04-03T13:29:25;897.25;;;834.75;;
17197;SDS011;8715;51.010;6.812;2023-04-03T13:31:52;902.90;;;840.15;;
17197;SDS011;8715;51.010;6.812;2023-04-03T13:34:18;900.05;;;836.95;;
17197;SDS011;8715;51.010;6.812;2023-04-03T13:36:45;904.55;;;840.90;;
17197;SDS011;8715;51.010;6.812;2023-04-03T13:41:40;906.38;;;842.58;;
17197;SDS011;8715;51.010;6.812;2023-04-03T13:46:46;902.95;;;839.30;;
17197;SDS011;8715;51.010;6.812;2023-04-03T13:49:22;900.80;;;837.60;;
17197;SDS011;8715;51.010;6.812;2023-04-03T13:51:51;896.88;;;834.33;;
17197;SDS011;8715;51.010;6.812;2023-04-03T13:54:21;901.85;;;838.30;;
17197;SDS011;8715;51.010;6.812;2023-04-03T13:56:51;905.83;;;842.45;;
17197;SDS011;8715;51.010;6.812;2023-04-03T14:02:29;909.55;;;844.78;;
17197;SDS011;8715;51.010;6.812;2023-04-03T14:06:54;901.27;;;837.77;;
17197;SDS011;8715;51.010;6.812;2023-04-03T14:09:20;908.47;;;843.97;;
17197;SDS011;8715;51.010;6.812;2023-04-03T14:11:46;899.88;;;835.92;;
17197;SDS011;8715;51.010;6.812;2023-04-03T14:14:14;905.25;;;841.25;;
17197;SDS011;8715;51.010;6.812;2023-04-03T14:16:40;912.72;;;847.63;;
17197;SDS011;8715;51.010;6.812;2023-04-03T14:19:07;907.13;;;842.47;;
17197;SDS011;8715;51.010;6.812;2023-04-03T14:21:35;912.40;;;847.42;;
17197;SDS011;8715;51.010;6.812;2023-04-03T14:24:00;911.80;;;847.20;;
17197;SDS011;8715;51.010;6.812;2023-04-03T14:26:25;901.97;;;837.93;;
17197;SDS011;8715;51.010;6.812;2023-04-03T14:28:52;907.67;;;843.10;;
17197;SDS011;8715;51.010;6.812;2023-04-03T14:31:19;913.72;;;848.90;;
17197;SDS011;8715;51.010;6.812;2023-04-03T14:33:44;912.10;;;847.38;;
17197;SDS011;8715;51.010;6.812;2023-04-03T14:36:12;904.13;;;840.30;;
17197;SDS011;8715;51.010;6.812;2023-04-03T14:38:38;896.38;;;833.53;;
17197;SDS011;8715;51.010;6.812;2023-04-03T14:41:03;901.30;;;837.90;;
17197;SDS011;8715;51.010;6.812;2023-04-03T14:43:28;905.63;;;841.43;;
17197;SDS011;8715;51.010;6.812;2023-04-03T14:45:53;901.60;;;838.23;;
17197;SDS011;8715;51.010;6.812;2023-04-03T14:48:20;901.57;;;838.33;;
17197;SDS011;8715;51.010;6.812;2023-04-03T14:50:46;900.03;;;836.67;;
17197;SDS011;8715;51.010;6.812;2023-04-03T14:53:11;903.95;;;840.75;;
17197;SDS011;8715;51.010;6.812;2023-04-03T14:55:37;901.90;;;838.40;;
17197;SDS011;8715;51.010;6.812;2023-04-03T14:58:03;899.97;;;836.77;;
17197;SDS011;8715;51.010;6.812;2023-04-03T15:00:28;900.43;;;837.07;;
17197;SDS011;8715;51.010;6.812;2023-04-03T15:02:53;896.67;;;833.60;;
17197;SDS011;8715;51.010;6.812;2023-04-03T15:05:18;907.83;;;843.70;;
17197;SDS011;8715;51.010;6.812;2023-04-03T15:07:48;908.25;;;844.33;;
17197;SDS011;8715;51.010;6.812;2023-04-03T15:10:16;903.97;;;840.35;;
17197;SDS011;8715;51.010;6.812;2023-04-03T15:12:42;899.13;;;835.75;;
17197;SDS011;8715;51.010;6.812;2023-04-03T15:15:08;905.50;;;840.95;;
17197;SDS011;8715;51.010;6.812;2023-04-03T15:17:33;909.60;;;845.53;;
17197;SDS011;8715;51.010;6.812;2023-04-03T15:19:59;903.92;;;840.05;;
17197;SDS011;8715;51.010;6.812;2023-04-03T15:22:24;904.20;;;840.60;;
17197;SDS011;8715;51.010;6.812;2023-04-03T15:24:49;906.80;;;842.40;;
17197;SDS011;8715;51.010;6.812;2023-04-03T15:27:15;905.10;;;841.40;;
17197;SDS011;8715;51.010;6.812;2023-04-03T15:29:40;897.58;;;834.63;;
17197;SDS011;8715;51.010;6.812;2023-04-03T15:32:06;907.83;;;843.95;;
17197;SDS011;8715;51.010;6.812;2023-04-03T15:34:32;904.45;;;840.58;;
17197;SDS011;8715;51.010;6.812;2023-04-03T15:36:57;907.88;;;844.30;;
17197;SDS011;8715;51.010;6.812;2023-04-03T15:39:24;901.30;;;838.17;;
17197;SDS011;8715;51.010;6.812;2023-04-03T15:41:49;904.13;;;840.55;;